sensor_id;sensor_type;location;lat;lon;timestamp;pressure;altitude;pressure_sealevel;temperature;humidity
56198;BME280;42700;42.524;12.052;2022-08-07T00:01:39;78781.31;;;27.47;100.00
56198;BME280;42700;42.524;12.052;2022-08-07T00:04:05;79278.84;;;27.62;100.00
56198;BME280;42700;42.524;12.052;2022-08-07T00:06:31;78576.72;;;27.56;100.00
56198;BME280;42700;42.524;12.052;2022-08-07T00:08:56;78349.25;;;27.61;100.00
56198;BME280;42700;42.524;12.052;2022-08-07T00:11:22;78888.63;;;27.63;100.00
56198;BME280;42700;42.524;12.052;2022-08-07T00:13:47;80171.94;;;27.70;100.00
56198;BME280;42700;42.524;12.052;2022-08-07T00:16:13;80985.34;;;27.69;100.00
56198;BME280;42700;42.524;12.052;2022-08-07T00:18:39;82298.91;;;27.74;100.00
56198;BME280;42700;42.524;12.052;2022-08-07T00:21:05;82748.06;;;27.79;100.00
56198;BME280;42700;42.524;12.052;2022-08-07T00:23:31;82512.75;;;27.68;100.00
56198;BME280;42700;42.524;12.052;2022-08-07T00:25:57;83337.13;;;27.78;100.00
56198;BME280;42700;42.524;12.052;2022-08-07T00:28:23;82444.81;;;27.68;100.00
56198;BME280;42700;42.524;12.052;2022-08-07T00:30:48;82207.69;;;27.63;100.00
56198;BME280;42700;42.524;12.052;2022-08-07T00:33:14;81931.97;;;27.64;100.00
56198;BME280;42700;42.524;12.052;2022-08-07T00:35:39;81438.91;;;27.57;100.00
56198;BME280;42700;42.524;12.052;2022-08-07T00:38:05;80950.09;;;27.55;100.00
56198;BME280;42700;42.524;12.052;2022-08-07T00:40:30;80726.78;;;27.50;100.00
56198;BME280;42700;42.524;12.052;2022-08-07T00:42:56;80815.75;;;27.41;100.00
56198;BME280;42700;42.524;12.052;2022-08-07T00:45:22;80606.81;;;27.31;100.00
56198;BME280;42700;42.524;12.052;2022-08-07T00:47:48;80244.53;;;27.26;100.00
56198;BME280;42700;42.524;12.052;2022-08-07T00:50:14;80326.56;;;27.29;100.00
56198;BME280;42700;42.524;12.052;2022-08-07T00:52:40;79434.50;;;27.27;100.00
56198;BME280;42700;42.524;12.052;2022-08-07T00:55:05;78381.88;;;27.27;100.00
56198;BME280;42700;42.524;12.052;2022-08-07T00:57:31;77793.81;;;27.17;100.00
56198;BME280;42700;42.524;12.052;2022-08-07T00:59:57;77711.06;;;27.18;100.00
56198;BME280;42700;42.524;12.052;2022-08-07T01:02:23;77851.00;;;27.13;100.00
56198;BME280;42700;42.524;12.052;2022-08-07T01:04:49;77441.13;;;27.08;100.00
56198;BME280;42700;42.524;12.052;2022-08-07T01:07:14;77569.31;;;27.06;100.00
56198;BME280;42700;42.524;12.052;2022-08-07T01:09:40;77165.75;;;27.00;100.00
56198;BME280;42700;42.524;12.052;2022-08-07T01:12:06;76997.97;;;26.96;100.00
56198;BME280;42700;42.524;12.052;2022-08-07T01:14:32;77140.03;;;26.99;100.00
56198;BME280;42700;42.524;12.052;2022-08-07T01:16:58;76834.03;;;26.95;100.00
56198;BME280;42700;42.524;12.052;2022-08-07T01:19:25;77117.22;;;26.96;100.00
56198;BME280;42700;42.524;12.052;2022-08-07T01:21:51;76675.00;;;27.02;100.00
56198;BME280;42700;42.524;12.052;2022-08-07T01:24:17;75777.22;;;26.95;100.00
56198;BME280;42700;42.524;12.052;2022-08-07T01:26:43;76230.53;;;27.02;100.00
56198;BME280;42700;42.524;12.052;2022-08-07T01:29:08;76152.09;;;27.00;100.00
56198;BME280;42700;42.524;12.052;2022-08-07T01:31:35;76163.25;;;26.96;100.00
56198;BME280;42700;42.524;12.052;2022-08-07T01:34:02;76072.38;;;26.97;100.00
56198;BME280;42700;42.524;12.052;2022-08-07T01:36:28;75768.91;;;26.97;100.00
56198;BME280;42700;42.524;12.052;2022-08-07T01:38:56;75693.38;;;26.93;100.00
56198;BME280;42700;42.524;12.052;2022-08-07T01:41:22;75795.41;;;26.88;100.00
56198;BME280;42700;42.524;12.052;2022-08-07T01:43:48;76325.16;;;26.87;100.00
56198;BME280;42700;42.524;12.052;2022-08-07T01:46:14;76525.41;;;26.91;100.00
56198;BME280;42700;42.524;12.052;2022-08-07T01:48:40;76558.47;;;26.83;100.00
56198;BME280;42700;42.524;12.052;2022-08-07T01:51:16;76479.41;;;26.80;100.00
56198;BME280;42700;42.524;12.052;2022-08-07T01:53:43;77036.94;;;26.80;100.00
56198;BME280;42700;42.524;12.052;2022-08-07T01:56:14;77377.19;;;26.77;100.00
56198;BME280;42700;42.524;12.052;2022-08-07T01:58:42;77457.28;;;26.74;100.00
56198;BME280;42700;42.524;12.052;2022-08-07T02:01:09;77169.44;;;26.73;100.00
56198;BME280;42700;42.524;12.052;2022-08-07T02:03:40;77041.31;;;26.75;100.00
56198;BME280;42700;42.524;12.052;2022-08-07T02:06:06;77067.63;;;26.76;100.00
56198;BME280;42700;42.524;12.052;2022-08-07T02:08:35;76842.38;;;26.72;100.00
56198;BME280;42700;42.524;12.052;2022-08-07T02:11:06;77181.78;;;26.70;100.00
56198;BME280;42700;42.524;12.052;2022-08-07T02:13:32;76570.06;;;26.62;100.00
56198;BME280;42700;42.524;12.052;2022-08-07T02:15:59;76749.47;;;26.62;100.00
56198;BME280;42700;42.524;12.052;2022-08-07T02:18:26;77167.13;;;26.54;100.00
56198;BME280;42700;42.524;12.052;2022-08-07T02:20:52;77363.47;;;26.55;100.00
56198;BME280;42700;42.524;12.052;2022-08-07T02:23:19;77199.50;;;26.56;100.00
56198;BME280;42700;42.524;12.052;2022-08-07T02:25:45;77324.25;;;26.54;100.00
56198;BME280;42700;42.524;12.052;2022-08-07T02:28:11;77802.44;;;26.53;100.00
56198;BME280;42700;42.524;12.052;2022-08-07T02:30:38;77780.75;;;26.53;100.00
56198;BME280;42700;42.524;12.052;2022-08-07T02:33:05;78472.09;;;26.58;100.00
56198;BME280;42700;42.524;12.052;2022-08-07T02:35:33;78971.19;;;26.66;100.00
56198;BME280;42700;42.524;12.052;2022-08-07T02:37:59;78543.25;;;26.58;100.00
56198;BME280;42700;42.524;12.052;2022-08-07T02:40:27;78948.28;;;26.61;100.00
56198;BME280;42700;42.524;12.052;2022-08-07T02:42:53;79128.59;;;26.58;100.00
56198;BME280;42700;42.524;12.052;2022-08-07T02:45:20;79699.06;;;26.63;100.00
56198;BME280;42700;42.524;12.052;2022-08-07T02:47:46;79439.59;;;26.58;100.00
56198;BME280;42700;42.524;12.052;2022-08-07T02:50:12;80660.81;;;26.65;100.00
56198;BME280;42700;42.524;12.052;2022-08-07T02:55:09;82281.97;;;26.66;100.00
56198;BME280;42700;42.524;12.052;2022-08-07T02:57:36;82396.03;;;26.73;100.00
56198;BME280;42700;42.524;12.052;2022-08-07T03:00:04;81388.25;;;26.69;100.00
56198;BME280;42700;42.524;12.052;2022-08-07T03:02:30;81251.97;;;26.65;100.00
56198;BME280;42700;42.524;12.052;2022-08-07T03:04:56;80996.38;;;26.73;100.00
56198;BME280;42700;42.524;12.052;2022-08-07T03:07:23;81538.72;;;26.62;100.00
56198;BME280;42700;42.524;12.052;2022-08-07T03:09:48;82463.13;;;26.70;100.00
56198;BME280;42700;42.524;12.052;2022-08-07T03:12:14;82352.56;;;26.68;100.00
56198;BME280;42700;42.524;12.052;2022-08-07T03:14:40;82370.13;;;26.65;100.00
56198;BME280;42700;42.524;12.052;2022-08-07T03:17:07;83288.31;;;26.62;100.00
56198;BME280;42700;42.524;12.052;2022-08-07T03:19:33;83939.53;;;26.62;100.00
56198;BME280;42700;42.524;12.052;2022-08-07T03:21:59;83895.63;;;26.66;100.00
56198;BME280;42700;42.524;12.052;2022-08-07T03:24:25;84120.84;;;26.52;100.00
56198;BME280;42700;42.524;12.052;2022-08-07T03:26:51;85391.44;;;26.60;100.00
56198;BME280;42700;42.524;12.052;2022-08-07T03:29:17;84753.69;;;26.62;100.00
56198;BME280;42700;42.524;12.052;2022-08-07T03:31:44;85339.19;;;26.50;100.00
56198;BME280;42700;42.524;12.052;2022-08-07T03:34:11;85984.38;;;26.57;100.00
56198;BME280;42700;42.524;12.052;2022-08-07T03:36:39;85973.28;;;26.45;100.00
56198;BME280;42700;42.524;12.052;2022-08-07T03:39:06;86987.50;;;26.56;100.00
56198;BME280;42700;42.524;12.052;2022-08-07T03:41:33;87053.75;;;26.53;100.00
56198;BME280;42700;42.524;12.052;2022-08-07T03:43:59;87342.66;;;26.50;100.00
56198;BME280;42700;42.524;12.052;2022-08-07T03:46:25;87023.97;;;26.40;100.00
56198;BME280;42700;42.524;12.052;2022-08-07T03:48:51;87101.50;;;26.48;100.00
56198;BME280;42700;42.524;12.052;2022-08-07T03:51:17;87072.56;;;26.51;100.00
56198;BME280;42700;42.524;12.052;2022-08-07T03:53:44;86529.56;;;26.43;100.00
56198;BME280;42700;42.524;12.052;2022-08-07T03:56:10;87293.34;;;26.46;100.00
56198;BME280;42700;42.524;12.052;2022-08-07T03:58:36;88183.09;;;26.38;100.00
56198;BME280;42700;42.524;12.052;2022-08-07T04:01:02;88513.41;;;26.41;100.00
56198;BME280;42700;42.524;12.052;2022-08-07T04:03:28;90129.34;;;26.39;100.00
56198;BME280;42700;42.524;12.052;2022-08-07T04:05:54;90486.75;;;26.40;100.00
56198;BME280;42700;42.524;12.052;2022-08-07T04:08:19;91166.75;;;26.31;100.00
56198;BME280;42700;42.524;12.052;2022-08-07T04:10:46;90522.22;;;26.36;100.00
56198;BME280;42700;42.524;12.052;2022-08-07T04:13:13;91759.13;;;26.31;100.00
56198;BME280;42700;42.524;12.052;2022-08-07T04:15:39;92972.50;;;26.26;100.00
56198;BME280;42700;42.524;12.052;2022-08-07T04:18:05;93026.50;;;26.35;100.00
56198;BME280;42700;42.524;12.052;2022-08-07T04:20:31;93676.56;;;26.26;100.00
56198;BME280;42700;42.524;12.052;2022-08-07T04:22:57;94811.50;;;26.38;100.00
56198;BME280;42700;42.524;12.052;2022-08-07T04:25:23;94396.38;;;26.29;100.00
56198;BME280;42700;42.524;12.052;2022-08-07T04:27:49;94648.16;;;26.30;100.00
56198;BME280;42700;42.524;12.052;2022-08-07T04:30:14;95809.81;;;26.38;100.00
56198;BME280;42700;42.524;12.052;2022-08-07T04:32:40;95901.69;;;26.41;100.00
56198;BME280;42700;42.524;12.052;2022-08-07T04:35:06;95386.25;;;26.38;100.00
56198;BME280;42700;42.524;12.052;2022-08-07T04:37:32;95798.63;;;26.39;100.00
56198;BME280;42700;42.524;12.052;2022-08-07T04:39:57;94913.06;;;26.29;100.00
56198;BME280;42700;42.524;12.052;2022-08-07T04:42:23;96725.78;;;26.33;100.00
56198;BME280;42700;42.524;12.052;2022-08-07T04:45:00;96942.94;;;26.31;100.00
56198;BME280;42700;42.524;12.052;2022-08-07T04:50:02;98102.28;;;26.31;100.00
56198;BME280;42700;42.524;12.052;2022-08-07T04:52:48;98205.19;;;26.40;100.00
56198;BME280;42700;42.524;12.052;2022-08-07T04:57:41;98727.97;;;26.45;100.00
56198;BME280;42700;42.524;12.052;2022-08-07T05:00:18;98406.69;;;26.45;100.00
56198;BME280;42700;42.524;12.052;2022-08-07T05:05:17;99194.84;;;26.54;100.00
56198;BME280;42700;42.524;12.052;2022-08-07T05:07:51;99349.38;;;26.59;100.00
56198;BME280;42700;42.524;12.052;2022-08-07T05:10:21;99141.56;;;26.58;100.00
56198;BME280;42700;42.524;12.052;2022-08-07T05:12:49;99817.38;;;26.68;100.00
56198;BME280;42700;42.524;12.052;2022-08-07T05:15:23;99633.28;;;26.73;100.00
56198;BME280;42700;42.524;12.052;2022-08-07T05:17:52;99934.69;;;26.74;100.00
56198;BME280;42700;42.524;12.052;2022-08-07T05:20:21;99662.94;;;26.81;100.00
56198;BME280;42700;42.524;12.052;2022-08-07T05:22:50;100414.66;;;26.84;100.00
56198;BME280;42700;42.524;12.052;2022-08-07T05:25:17;100771.53;;;26.92;100.00
56198;BME280;42700;42.524;12.052;2022-08-07T05:27:43;100690.56;;;26.99;100.00
56198;BME280;42700;42.524;12.052;2022-08-07T05:30:10;100281.28;;;26.89;100.00
56198;BME280;42700;42.524;12.052;2022-08-07T05:32:36;100207.06;;;26.87;100.00
56198;BME280;42700;42.524;12.052;2022-08-07T05:35:02;100147.56;;;26.84;100.00
56198;BME280;42700;42.524;12.052;2022-08-07T05:37:28;100280.06;;;26.85;100.00
56198;BME280;42700;42.524;12.052;2022-08-07T05:39:54;100853.75;;;27.09;100.00
56198;BME280;42700;42.524;12.052;2022-08-07T05:42:20;100298.66;;;27.20;100.00
56198;BME280;42700;42.524;12.052;2022-08-07T05:44:46;99286.47;;;27.18;100.00
56198;BME280;42700;42.524;12.052;2022-08-07T05:47:12;100094.50;;;27.23;100.00
56198;BME280;42700;42.524;12.052;2022-08-07T05:49:38;99120.66;;;27.15;100.00
56198;BME280;42700;42.524;12.052;2022-08-07T05:52:04;100698.06;;;27.37;100.00
56198;BME280;42700;42.524;12.052;2022-08-07T05:54:29;99564.31;;;27.31;100.00
56198;BME280;42700;42.524;12.052;2022-08-07T05:56:55;100366.03;;;27.45;100.00
56198;BME280;42700;42.524;12.052;2022-08-07T05:59:22;99343.50;;;27.70;100.00
56198;BME280;42700;42.524;12.052;2022-08-07T06:01:49;99140.91;;;27.80;100.00
56198;BME280;42700;42.524;12.052;2022-08-07T06:04:15;99147.72;;;27.77;100.00
56198;BME280;42700;42.524;12.052;2022-08-07T06:06:42;99490.88;;;27.70;100.00
56198;BME280;42700;42.524;12.052;2022-08-07T06:09:07;100648.97;;;27.83;100.00
56198;BME280;42700;42.524;12.052;2022-08-07T06:11:33;99323.00;;;27.85;100.00
56198;BME280;42700;42.524;12.052;2022-08-07T06:13:59;99343.16;;;27.84;100.00
56198;BME280;42700;42.524;12.052;2022-08-07T06:16:26;100454.16;;;28.02;100.00
56198;BME280;42700;42.524;12.052;2022-08-07T06:18:52;100729.25;;;28.13;100.00
56198;BME280;42700;42.524;12.052;2022-08-07T06:21:18;98296.44;;;27.77;100.00
56198;BME280;42700;42.524;12.052;2022-08-07T06:23:44;99797.69;;;27.98;100.00
56198;BME280;42700;42.524;12.052;2022-08-07T06:26:12;100101.84;;;28.21;100.00
56198;BME280;42700;42.524;12.052;2022-08-07T06:28:51;99623.69;;;28.22;100.00
56198;BME280;42700;42.524;12.052;2022-08-07T06:31:17;99779.16;;;28.41;100.00
56198;BME280;42700;42.524;12.052;2022-08-07T06:33:42;99250.50;;;28.11;100.00
56198;BME280;42700;42.524;12.052;2022-08-07T06:36:09;99905.84;;;28.51;100.00
56198;BME280;42700;42.524;12.052;2022-08-07T06:38:34;99560.63;;;28.58;100.00
56198;BME280;42700;42.524;12.052;2022-08-07T06:41:00;98894.03;;;28.68;100.00
56198;BME280;42700;42.524;12.052;2022-08-07T06:43:28;98087.69;;;28.80;100.00
56198;BME280;42700;42.524;12.052;2022-08-07T06:46:00;97376.34;;;28.89;100.00
56198;BME280;42700;42.524;12.052;2022-08-07T06:48:26;97006.75;;;28.98;100.00
56198;BME280;42700;42.524;12.052;2022-08-07T06:50:52;95744.84;;;28.80;100.00
56198;BME280;42700;42.524;12.052;2022-08-07T06:53:19;97369.50;;;29.20;100.00
56198;BME280;42700;42.524;12.052;2022-08-07T06:55:45;97484.50;;;29.51;100.00
56198;BME280;42700;42.524;12.052;2022-08-07T06:58:11;97393.88;;;29.67;100.00
56198;BME280;42700;42.524;12.052;2022-08-07T07:00:39;96164.69;;;29.68;100.00
56198;BME280;42700;42.524;12.052;2022-08-07T07:03:05;95607.16;;;29.50;100.00
56198;BME280;42700;42.524;12.052;2022-08-07T07:05:31;95670.09;;;29.38;100.00
56198;BME280;42700;42.524;12.052;2022-08-07T07:07:56;96420.94;;;29.67;100.00
56198;BME280;42700;42.524;12.052;2022-08-07T07:10:32;96955.34;;;29.97;100.00
56198;BME280;42700;42.524;12.052;2022-08-07T07:13:00;96143.34;;;30.07;100.00
56198;BME280;42700;42.524;12.052;2022-08-07T07:15:33;95989.91;;;29.99;100.00
56198;BME280;42700;42.524;12.052;2022-08-07T07:20:33;95924.19;;;30.24;100.00
56198;BME280;42700;42.524;12.052;2022-08-07T07:23:00;94835.47;;;29.96;100.00
56198;BME280;42700;42.524;12.052;2022-08-07T07:25:26;95328.16;;;30.14;100.00
56198;BME280;42700;42.524;12.052;2022-08-07T07:27:59;94992.88;;;30.20;100.00
56198;BME280;42700;42.524;12.052;2022-08-07T07:30:33;95315.47;;;30.45;100.00
56198;BME280;42700;42.524;12.052;2022-08-07T07:33:00;92935.97;;;29.89;100.00
56198;BME280;42700;42.524;12.052;2022-08-07T07:35:26;95810.00;;;30.53;100.00
56198;BME280;42700;42.524;12.052;2022-08-07T07:37:53;95002.94;;;30.69;100.00
56198;BME280;42700;42.524;12.052;2022-08-07T07:40:20;94425.59;;;30.64;100.00
56198;BME280;42700;42.524;12.052;2022-08-07T07:42:47;94548.50;;;30.84;100.00
56198;BME280;42700;42.524;12.052;2022-08-07T07:45:14;94356.09;;;31.23;100.00
56198;BME280;42700;42.524;12.052;2022-08-07T07:47:40;93679.53;;;31.43;100.00
56198;BME280;42700;42.524;12.052;2022-08-07T07:50:08;92520.22;;;31.24;100.00
56198;BME280;42700;42.524;12.052;2022-08-07T07:52:34;90915.22;;;30.78;100.00
56198;BME280;42700;42.524;12.052;2022-08-07T07:55:01;90032.13;;;30.70;100.00
56198;BME280;42700;42.524;12.052;2022-08-07T07:57:27;92615.00;;;31.22;100.00
56198;BME280;42700;42.524;12.052;2022-08-07T07:59:53;91586.84;;;31.51;100.00
56198;BME280;42700;42.524;12.052;2022-08-07T08:02:19;89164.84;;;31.40;100.00
56198;BME280;42700;42.524;12.052;2022-08-07T08:04:45;90055.66;;;31.82;100.00
56198;BME280;42700;42.524;12.052;2022-08-07T08:07:12;89538.38;;;32.23;100.00
56198;BME280;42700;42.524;12.052;2022-08-07T08:09:37;88645.16;;;32.11;100.00
56198;BME280;42700;42.524;12.052;2022-08-07T08:12:04;89368.22;;;32.64;100.00
56198;BME280;42700;42.524;12.052;2022-08-07T08:14:32;87476.63;;;32.61;100.00
56198;BME280;42700;42.524;12.052;2022-08-07T08:16:57;88215.06;;;32.86;100.00
56198;BME280;42700;42.524;12.052;2022-08-07T08:19:26;88218.34;;;32.92;100.00
56198;BME280;42700;42.524;12.052;2022-08-07T08:21:52;86686.56;;;32.91;100.00
56198;BME280;42700;42.524;12.052;2022-08-07T08:24:38;82721.47;;;32.69;100.00
56198;BME280;42700;42.524;12.052;2022-08-07T08:27:24;82497.09;;;33.43;100.00
56198;BME280;42700;42.524;12.052;2022-08-07T08:29:58;78953.56;;;32.89;100.00
56198;BME280;42700;42.524;12.052;2022-08-07T08:32:26;79354.06;;;33.14;100.00
56198;BME280;42700;42.524;12.052;2022-08-07T08:34:53;83123.00;;;33.62;100.00
56198;BME280;42700;42.524;12.052;2022-08-07T08:37:18;84089.66;;;33.81;100.00
56198;BME280;42700;42.524;12.052;2022-08-07T08:39:45;81248.22;;;33.65;100.00
56198;BME280;42700;42.524;12.052;2022-08-07T08:42:19;79296.38;;;33.03;100.00
56198;BME280;42700;42.524;12.052;2022-08-07T08:45:33;82784.47;;;34.00;100.00
56198;BME280;42700;42.524;12.052;2022-08-07T08:47:37;85793.94;;;34.35;100.00
56198;BME280;42700;42.524;12.052;2022-08-07T08:50:10;87077.34;;;34.68;100.00
56198;BME280;42700;42.524;12.052;2022-08-07T08:52:41;83324.50;;;34.78;100.00
56198;BME280;42700;42.524;12.052;2022-08-07T08:55:13;79138.75;;;34.28;100.00
56198;BME280;42700;42.524;12.052;2022-08-07T08:57:46;79505.75;;;33.95;100.00
56198;BME280;42700;42.524;12.052;2022-08-07T09:00:13;79162.75;;;34.14;100.00
56198;BME280;42700;42.524;12.052;2022-08-07T09:02:41;82144.53;;;34.87;100.00
56198;BME280;42700;42.524;12.052;2022-08-07T09:05:32;78647.03;;;34.18;100.00
56198;BME280;42700;42.524;12.052;2022-08-07T09:15:43;77386.63;;;35.20;100.00
56198;BME280;42700;42.524;12.052;2022-08-07T09:18:32;79832.84;;;35.90;100.00
56198;BME280;42700;42.524;12.052;2022-08-07T09:28:58;75765.53;;;36.24;100.00
56198;BME280;42700;42.524;12.052;2022-08-07T09:34:14;76699.69;;;36.70;98.99
56198;BME280;42700;42.524;12.052;2022-08-07T09:36:49;75156.88;;;36.90;94.58
56198;BME280;42700;42.524;12.052;2022-08-07T09:41:47;75145.50;;;36.99;92.69
56198;BME280;42700;42.524;12.052;2022-08-07T09:47:02;79424.91;;;38.08;95.37
56198;BME280;42700;42.524;12.052;2022-08-07T09:52:19;79113.47;;;38.45;88.33
56198;BME280;42700;42.524;12.052;2022-08-07T09:54:48;73060.25;;;38.15;83.30
56198;BME280;42700;42.524;12.052;2022-08-07T09:59:52;73204.31;;;38.58;83.25
56198;BME280;42700;42.524;12.052;2022-08-07T10:05:11;75764.19;;;38.90;83.28
56198;BME280;42700;42.524;12.052;2022-08-07T10:07:54;78681.25;;;39.40;93.98
56198;BME280;42700;42.524;12.052;2022-08-07T10:23:02;78683.44;;;40.77;84.54
56198;BME280;42700;42.524;12.052;2022-08-07T10:28:28;73560.69;;;40.31;80.38
56198;BME280;42700;42.524;12.052;2022-08-07T10:33:56;74684.28;;;40.71;80.34
56198;BME280;42700;42.524;12.052;2022-08-07T10:36:34;66809.78;;;39.56;69.73
56198;BME280;42700;42.524;12.052;2022-08-07T10:42:06;73578.63;;;40.53;76.60
56198;BME280;42700;42.524;12.052;2022-08-07T10:49:55;73088.88;;;40.92;73.78
56198;BME280;42700;42.524;12.052;2022-08-07T10:52:43;69473.63;;;40.42;65.35
56198;BME280;42700;42.524;12.052;2022-08-07T10:55:16;74112.47;;;41.16;75.86
56198;BME280;42700;42.524;12.052;2022-08-07T11:00:09;74041.25;;;41.51;72.89
56198;BME280;42700;42.524;12.052;2022-08-07T11:08:00;69946.66;;;40.97;73.11
56198;BME280;42700;42.524;12.052;2022-08-07T11:13:19;72662.16;;;41.91;59.62
56198;BME280;42700;42.524;12.052;2022-08-07T11:15:49;63798.50;;;40.54;54.85
56198;BME280;42700;42.524;12.052;2022-08-07T11:18:24;74246.94;;;42.10;67.24
56198;BME280;42700;42.524;12.052;2022-08-07T11:26:04;72750.41;;;42.83;47.81
56198;BME280;42700;42.524;12.052;2022-08-07T11:28:38;76783.56;;;43.33;66.68
56198;BME280;42700;42.524;12.052;2022-08-07T11:31:06;78596.75;;;43.69;66.57
56198;BME280;42700;42.524;12.052;2022-08-07T11:42:07;80298.00;;;44.52;61.50
56198;BME280;42700;42.524;12.052;2022-08-07T11:44:38;79651.59;;;44.52;60.12
56198;BME280;42700;42.524;12.052;2022-08-07T11:47:11;80366.84;;;44.84;58.99
56198;BME280;42700;42.524;12.052;2022-08-07T11:52:18;78218.38;;;44.80;53.88
56198;BME280;42700;42.524;12.052;2022-08-07T12:00:09;73686.53;;;44.51;48.39
56198;BME280;42700;42.524;12.052;2022-08-07T12:10:27;77488.25;;;45.43;49.94
56198;BME280;42700;42.524;12.052;2022-08-07T12:13:39;78900.38;;;45.77;48.72
56198;BME280;42700;42.524;12.052;2022-08-07T12:15:47;80307.59;;;46.08;48.59
56198;BME280;42700;42.524;12.052;2022-08-07T12:23:49;75790.22;;;45.45;41.99
56198;BME280;42700;42.524;12.052;2022-08-07T12:26:27;68323.63;;;44.05;39.59
56198;BME280;42700;42.524;12.052;2022-08-07T12:34:11;68263.31;;;44.16;40.62
56198;BME280;42700;42.524;12.052;2022-08-07T12:36:37;72860.69;;;44.99;41.46
56198;BME280;42700;42.524;12.052;2022-08-07T12:39:04;76524.13;;;45.71;43.05
56198;BME280;42700;42.524;12.052;2022-08-07T12:41:32;74799.91;;;45.46;42.07
56198;BME280;42700;42.524;12.052;2022-08-07T12:43:59;69237.13;;;44.22;39.76
56198;BME280;42700;42.524;12.052;2022-08-07T12:46:27;62586.28;;;42.82;39.61
56198;BME280;42700;42.524;12.052;2022-08-07T12:48:57;61325.03;;;42.23;40.83
56198;BME280;42700;42.524;12.052;2022-08-07T12:51:27;59682.00;;;41.88;39.62
56198;BME280;42700;42.524;12.052;2022-08-07T12:54:16;56873.94;;;41.12;39.83
56198;BME280;42700;42.524;12.052;2022-08-07T12:56:46;54458.81;;;40.30;42.97
56198;BME280;42700;42.524;12.052;2022-08-07T12:59:17;53634.78;;;39.81;45.04
56198;BME280;42700;42.524;12.052;2022-08-07T13:12:21;56099.59;;;35.53;77.30
56198;BME280;42700;42.524;12.052;2022-08-07T13:15:02;57765.31;;;34.88;80.80
56198;BME280;42700;42.524;12.052;2022-08-07T13:23:25;70707.16;;;33.95;93.89
56198;BME280;42700;42.524;12.052;2022-08-07T13:25:44;73082.13;;;33.01;100.00
56198;BME280;42700;42.524;12.052;2022-08-07T13:28:15;79904.31;;;32.99;100.00
56198;BME280;42700;42.524;12.052;2022-08-07T13:30:44;83577.19;;;32.32;100.00
56198;BME280;42700;42.524;12.052;2022-08-07T13:33:35;86194.91;;;29.24;100.00
56198;BME280;42700;42.524;12.052;2022-08-07T13:36:09;94593.47;;;25.15;100.00
56198;BME280;42700;42.524;12.052;2022-08-07T13:38:38;96874.09;;;24.39;100.00
56198;BME280;42700;42.524;12.052;2022-08-07T13:41:24;96720.50;;;24.43;100.00
56198;BME280;42700;42.524;12.052;2022-08-07T13:43:52;96029.41;;;24.12;100.00
56198;BME280;42700;42.524;12.052;2022-08-07T13:46:18;95983.06;;;23.72;100.00
56198;BME280;42700;42.524;12.052;2022-08-07T13:48:47;95707.06;;;23.80;100.00
56198;BME280;42700;42.524;12.052;2022-08-07T13:51:13;96888.88;;;23.38;100.00
56198;BME280;42700;42.524;12.052;2022-08-07T13:53:40;96745.75;;;23.16;100.00
56198;BME280;42700;42.524;12.052;2022-08-07T13:56:09;97220.84;;;22.67;100.00
56198;BME280;42700;42.524;12.052;2022-08-07T13:58:39;96963.16;;;23.17;100.00
56198;BME280;42700;42.524;12.052;2022-08-07T14:01:25;96824.44;;;23.35;100.00
56198;BME280;42700;42.524;12.052;2022-08-07T14:03:50;96736.47;;;23.62;100.00
56198;BME280;42700;42.524;12.052;2022-08-07T14:06:17;96642.09;;;23.99;100.00
56198;BME280;42700;42.524;12.052;2022-08-07T14:08:45;96591.94;;;24.39;100.00
56198;BME280;42700;42.524;12.052;2022-08-07T14:11:11;96556.19;;;24.75;100.00
56198;BME280;42700;42.524;12.052;2022-08-07T14:13:37;96483.09;;;25.26;100.00
56198;BME280;42700;42.524;12.052;2022-08-07T14:16:04;96376.47;;;25.34;100.00
56198;BME280;42700;42.524;12.052;2022-08-07T14:18:38;96053.94;;;25.57;100.00
56198;BME280;42700;42.524;12.052;2022-08-07T14:21:06;96123.53;;;25.98;100.00
56198;BME280;42700;42.524;12.052;2022-08-07T14:23:34;96139.34;;;26.36;100.00
56198;BME280;42700;42.524;12.052;2022-08-07T14:26:04;96151.06;;;26.54;100.00
56198;BME280;42700;42.524;12.052;2022-08-07T14:28:32;96121.69;;;26.91;100.00
56198;BME280;42700;42.524;12.052;2022-08-07T14:30:59;96001.16;;;27.68;100.00
56198;BME280;42700;42.524;12.052;2022-08-07T14:33:26;95950.72;;;27.53;100.00
56198;BME280;42700;42.524;12.052;2022-08-07T14:35:55;95932.19;;;27.67;100.00
56198;BME280;42700;42.524;12.052;2022-08-07T14:38:23;95876.56;;;27.89;100.00
56198;BME280;42700;42.524;12.052;2022-08-07T14:40:57;95559.78;;;27.75;100.00
56198;BME280;42700;42.524;12.052;2022-08-07T14:43:24;95504.25;;;27.79;100.00
56198;BME280;42700;42.524;12.052;2022-08-07T14:45:50;95531.28;;;27.85;100.00
56198;BME280;42700;42.524;12.052;2022-08-07T14:48:20;95620.38;;;27.93;100.00
56198;BME280;42700;42.524;12.052;2022-08-07T14:50:48;95705.63;;;28.02;100.00
56198;BME280;42700;42.524;12.052;2022-08-07T14:53:14;95728.19;;;28.24;100.00
56198;BME280;42700;42.524;12.052;2022-08-07T14:55:40;95682.94;;;28.23;100.00
56198;BME280;42700;42.524;12.052;2022-08-07T14:58:08;94679.47;;;31.26;100.00
56198;BME280;42700;42.524;12.052;2022-08-07T15:00:35;94221.41;;;28.87;100.00
56198;BME280;42700;42.524;12.052;2022-08-07T15:03:06;94641.22;;;28.98;100.00
56198;BME280;42700;42.524;12.052;2022-08-07T15:05:33;94529.22;;;27.21;100.00